This is the latest recevied weather packets stored in our database for station/object W8DRH-13. If no packets are shown the sender has not sent any weather packets the latest 10 day(s).
| Time | Temp. | Humidity | Pressure | Rain* | Wind** | Luminosity | Snow |
|---|---|---|---|---|---|---|---|
| 1777509274 | 9.44° C | 97% | 1008.7 hPa | 0 mm | - | 0 W/m² | - |
| 1777508971 | 9.44° C | 97% | 1008.8 hPa | 0 mm | - | 0 W/m² | - |
| 1777508668 | 10° C | 97% | 1008.7 hPa | 0 mm | - | 0 W/m² | - |
| 1777508366 | 10° C | 97% | 1008.7 hPa | 0 mm | - | 1 W/m² | - |
| 1777508062 | 10° C | 97% | 1008.7 hPa | 0 mm | - | 3 W/m² | - |
| 1777507759 | 10° C | 97% | 1008.4 hPa | 0 mm | - | 6 W/m² | - |
| 1777507456 | 10° C | 96% | 1008.5 hPa | 0 mm | - | 12 W/m² | - |
| 1777507153 | 10° C | 96% | 1008.7 hPa | 0 mm | - | 18 W/m² | - |
| 1777506851 | 10° C | 96% | 1008.8 hPa | 0 mm | - | 7 W/m² | - |
| 1777506548 | 10° C | 96% | 1008.7 hPa | 0 mm | - | 3 W/m² | - |
| 1777506243 | 10° C | 96% | 1008.4 hPa | 4.83 mm | - | 11 W/m² | - |
| 1777505940 | 10° C | 96% | 1008.5 hPa | 8.89 mm | - | 19 W/m² | - |
| 1777505635 | 10° C | 96% | 1008.5 hPa | 6.1 mm | - | 10 W/m² | - |
| 1777505333 | 10° C | 96% | 1008.3 hPa | 1.78 mm | - | 6 W/m² | - |
| 1777505029 | 10° C | 95% | 1008.3 hPa | 0 mm | - | 15 W/m² | - |
| 1777504726 | 10° C | 95% | 1008.1 hPa | 0 mm | - | 8 W/m² | - |
| 1777504423 | 10.56° C | 95% | 1008.1 hPa | 0 mm | - | 17 W/m² | - |
| 1777504118 | 10.56° C | 95% | 1008.2 hPa | 0 mm | - | 17 W/m² | - |
| 1777503814 | 10.56° C | 95% | 1008 hPa | 0 mm | - | 33 W/m² | - |
| 1777503511 | 10.56° C | 95% | 1008 hPa | 0 mm | - | 55 W/m² | - |
| 1777503207 | 10.56° C | 94% | 1007.7 hPa | 3.05 mm | - | 116 W/m² | - |
| 1777502905 | 10.56° C | 94% | 1008 hPa | 3.05 mm | - | 32 W/m² | - |
| 1777502602 | 10.56° C | 93% | 1007.8 hPa | 0 mm | - | 35 W/m² | - |
| 1777502299 | 11.11° C | 93% | 1007.9 hPa | 0 mm | - | 29 W/m² | - |
| 1777501995 | 11.11° C | 92% | 1007.8 hPa | 1.27 mm | - | 25 W/m² | - |
* Rain latest hour (hover to see other rain measurements)
** Current wind speed in m/s (hover to see current wind gust speed)